sensor_id;sensor_type;location;lat;lon;timestamp;temperature;humidity
20722;DHT22;10522;52.198;9.890;2023-01-19T00:00:07;0.20;99.90
20722;DHT22;10522;52.198;9.890;2023-01-19T00:02:35;0.20;99.90
20722;DHT22;10522;52.198;9.890;2023-01-19T00:05:01;0.20;99.90
20722;DHT22;10522;52.198;9.890;2023-01-19T00:07:29;0.20;99.90
20722;DHT22;10522;52.198;9.890;2023-01-19T00:09:55;0.20;99.90
20722;DHT22;10522;52.198;9.890;2023-01-19T00:12:20;0.20;99.90
20722;DHT22;10522;52.198;9.890;2023-01-19T00:14:46;0.10;99.90
20722;DHT22;10522;52.198;9.890;2023-01-19T00:17:12;0.20;99.90
20722;DHT22;10522;52.198;9.890;2023-01-19T00:19:37;0.20;99.90
20722;DHT22;10522;52.198;9.890;2023-01-19T00:22:03;0.10;99.90
20722;DHT22;10522;52.198;9.890;2023-01-19T00:24:31;0.20;99.90
20722;DHT22;10522;52.198;9.890;2023-01-19T00:26:56;0.20;99.90
20722;DHT22;10522;52.198;9.890;2023-01-19T00:29:22;0.20;99.90
20722;DHT22;10522;52.198;9.890;2023-01-19T00:31:48;0.30;99.90
20722;DHT22;10522;52.198;9.890;2023-01-19T00:34:14;0.30;99.90
20722;DHT22;10522;52.198;9.890;2023-01-19T00:36:40;0.30;99.90
20722;DHT22;10522;52.198;9.890;2023-01-19T00:39:05;0.30;99.90
20722;DHT22;10522;52.198;9.890;2023-01-19T00:41:31;0.30;99.90
20722;DHT22;10522;52.198;9.890;2023-01-19T00:44:15;0.30;99.90
20722;DHT22;10522;52.198;9.890;2023-01-19T00:46:41;0.20;99.90
20722;DHT22;10522;52.198;9.890;2023-01-19T00:49:07;0.20;99.90
20722;DHT22;10522;52.198;9.890;2023-01-19T00:51:32;0.30;99.90
20722;DHT22;10522;52.198;9.890;2023-01-19T00:53:58;0.20;99.90
20722;DHT22;10522;52.198;9.890;2023-01-19T00:56:31;0.30;99.90
20722;DHT22;10522;52.198;9.890;2023-01-19T00:58:57;0.20;99.90
20722;DHT22;10522;52.198;9.890;2023-01-19T01:01:23;0.20;99.90
20722;DHT22;10522;52.198;9.890;2023-01-19T01:03:48;0.20;99.90
20722;DHT22;10522;52.198;9.890;2023-01-19T01:06:14;0.30;99.90
20722;DHT22;10522;52.198;9.890;2023-01-19T01:08:39;0.20;99.90
20722;DHT22;10522;52.198;9.890;2023-01-19T01:11:05;0.20;99.90
20722;DHT22;10522;52.198;9.890;2023-01-19T01:13:31;0.30;99.90
20722;DHT22;10522;52.198;9.890;2023-01-19T01:15:56;0.30;99.90
20722;DHT22;10522;52.198;9.890;2023-01-19T01:18:23;0.40;99.90
20722;DHT22;10522;52.198;9.890;2023-01-19T01:20:48;0.40;99.90
20722;DHT22;10522;52.198;9.890;2023-01-19T01:23:14;0.30;99.90
20722;DHT22;10522;52.198;9.890;2023-01-19T01:25:40;0.30;99.90
20722;DHT22;10522;52.198;9.890;2023-01-19T01:28:07;0.30;99.90
20722;DHT22;10522;52.198;9.890;2023-01-19T01:30:34;0.30;99.90
20722;DHT22;10522;52.198;9.890;2023-01-19T01:33:00;0.40;99.90
20722;DHT22;10522;52.198;9.890;2023-01-19T01:35:26;0.40;99.90
20722;DHT22;10522;52.198;9.890;2023-01-19T01:37:51;0.40;99.90
20722;DHT22;10522;52.198;9.890;2023-01-19T01:40:18;0.40;99.90
20722;DHT22;10522;52.198;9.890;2023-01-19T01:42:44;0.50;99.90
20722;DHT22;10522;52.198;9.890;2023-01-19T01:47:55;0.50;99.90
20722;DHT22;10522;52.198;9.890;2023-01-19T01:50:27;0.50;99.90
20722;DHT22;10522;52.198;9.890;2023-01-19T01:52:58;0.50;99.90
20722;DHT22;10522;52.198;9.890;2023-01-19T01:55:25;0.50;99.90
20722;DHT22;10522;52.198;9.890;2023-01-19T01:57:56;0.50;99.90
20722;DHT22;10522;52.198;9.890;2023-01-19T02:00:23;0.60;99.90
20722;DHT22;10522;52.198;9.890;2023-01-19T02:02:49;0.60;99.90
20722;DHT22;10522;52.198;9.890;2023-01-19T02:05:28;0.60;99.90
20722;DHT22;10522;52.198;9.890;2023-01-19T02:10:48;0.60;99.90
20722;DHT22;10522;52.198;9.890;2023-01-19T02:13:35;0.50;99.90
20722;DHT22;10522;52.198;9.890;2023-01-19T02:16:06;0.60;99.90
20722;DHT22;10522;52.198;9.890;2023-01-19T02:18:33;0.50;99.90
20722;DHT22;10522;52.198;9.890;2023-01-19T02:23:57;0.60;99.90
20722;DHT22;10522;52.198;9.890;2023-01-19T02:26:30;0.60;99.90
20722;DHT22;10522;52.198;9.890;2023-01-19T02:29:00;0.70;99.90
20722;DHT22;10522;52.198;9.890;2023-01-19T02:31:28;0.70;99.90
20722;DHT22;10522;52.198;9.890;2023-01-19T02:33:56;0.60;99.90
20722;DHT22;10522;52.198;9.890;2023-01-19T02:36:27;0.50;99.90
20722;DHT22;10522;52.198;9.890;2023-01-19T02:38:55;0.70;99.90
20722;DHT22;10522;52.198;9.890;2023-01-19T02:41:27;0.70;99.90
20722;DHT22;10522;52.198;9.890;2023-01-19T02:43:55;0.70;99.90
20722;DHT22;10522;52.198;9.890;2023-01-19T02:46:21;0.70;99.90
20722;DHT22;10522;52.198;9.890;2023-01-19T02:48:47;0.70;99.90
20722;DHT22;10522;52.198;9.890;2023-01-19T02:51:22;0.60;99.90
20722;DHT22;10522;52.198;9.890;2023-01-19T02:56:47;0.70;99.90
20722;DHT22;10522;52.198;9.890;2023-01-19T02:59:42;0.80;99.90
20722;DHT22;10522;52.198;9.890;2023-01-19T03:11:08;0.70;99.90
20722;DHT22;10522;52.198;9.890;2023-01-19T03:13:55;0.60;99.90
20722;DHT22;10522;52.198;9.890;2023-01-19T03:16:33;0.60;99.90
20722;DHT22;10522;52.198;9.890;2023-01-19T03:19:33;0.60;99.90
20722;DHT22;10522;52.198;9.890;2023-01-19T03:22:06;0.60;99.90
20722;DHT22;10522;52.198;9.890;2023-01-19T03:24:36;0.70;99.90
20722;DHT22;10522;52.198;9.890;2023-01-19T03:27:26;0.70;99.90
20722;DHT22;10522;52.198;9.890;2023-01-19T03:29:59;0.80;99.90
20722;DHT22;10522;52.198;9.890;2023-01-19T03:32:36;0.90;99.90
20722;DHT22;10522;52.198;9.890;2023-01-19T03:35:06;0.80;99.90
20722;DHT22;10522;52.198;9.890;2023-01-19T03:37:36;0.80;99.90
20722;DHT22;10522;52.198;9.890;2023-01-19T03:40:04;0.70;99.90
20722;DHT22;10522;52.198;9.890;2023-01-19T03:42:30;0.70;99.90
20722;DHT22;10522;52.198;9.890;2023-01-19T03:44:59;0.80;99.90
20722;DHT22;10522;52.198;9.890;2023-01-19T03:47:25;0.80;99.90
20722;DHT22;10522;52.198;9.890;2023-01-19T03:49:52;0.80;99.90
20722;DHT22;10522;52.198;9.890;2023-01-19T03:52:26;0.90;99.90
20722;DHT22;10522;52.198;9.890;2023-01-19T03:54:52;1.00;99.90
20722;DHT22;10522;52.198;9.890;2023-01-19T03:57:18;1.10;99.90
20722;DHT22;10522;52.198;9.890;2023-01-19T03:59:44;1.10;99.90
20722;DHT22;10522;52.198;9.890;2023-01-19T04:02:09;1.10;99.90
20722;DHT22;10522;52.198;9.890;2023-01-19T04:04:35;1.20;99.90
20722;DHT22;10522;52.198;9.890;2023-01-19T04:07:00;1.10;99.90
20722;DHT22;10522;52.198;9.890;2023-01-19T04:09:26;1.10;99.90
20722;DHT22;10522;52.198;9.890;2023-01-19T04:11:52;1.20;99.90
20722;DHT22;10522;52.198;9.890;2023-01-19T04:14:17;1.20;99.90
20722;DHT22;10522;52.198;9.890;2023-01-19T04:16:43;1.10;99.90
20722;DHT22;10522;52.198;9.890;2023-01-19T04:19:09;1.10;99.90
20722;DHT22;10522;52.198;9.890;2023-01-19T04:21:35;1.20;99.90
20722;DHT22;10522;52.198;9.890;2023-01-19T04:24:00;1.20;99.90
20722;DHT22;10522;52.198;9.890;2023-01-19T04:26:26;1.10;99.90
20722;DHT22;10522;52.198;9.890;2023-01-19T04:28:51;1.10;99.90
20722;DHT22;10522;52.198;9.890;2023-01-19T04:31:17;1.00;99.90
20722;DHT22;10522;52.198;9.890;2023-01-19T04:33:43;0.90;99.90
20722;DHT22;10522;52.198;9.890;2023-01-19T04:36:09;1.00;99.90
20722;DHT22;10522;52.198;9.890;2023-01-19T04:38:35;1.10;99.90
20722;DHT22;10522;52.198;9.890;2023-01-19T04:41:00;1.10;99.90
20722;DHT22;10522;52.198;9.890;2023-01-19T04:43:26;1.10;99.90
20722;DHT22;10522;52.198;9.890;2023-01-19T04:45:51;1.20;99.90
20722;DHT22;10522;52.198;9.890;2023-01-19T04:48:18;1.20;99.90
20722;DHT22;10522;52.198;9.890;2023-01-19T04:50:44;1.20;99.90
20722;DHT22;10522;52.198;9.890;2023-01-19T04:53:10;1.20;99.90
20722;DHT22;10522;52.198;9.890;2023-01-19T04:55:37;1.20;99.90
20722;DHT22;10522;52.198;9.890;2023-01-19T04:58:03;1.30;99.90
20722;DHT22;10522;52.198;9.890;2023-01-19T05:00:29;1.30;99.90
20722;DHT22;10522;52.198;9.890;2023-01-19T05:02:55;1.20;99.90
20722;DHT22;10522;52.198;9.890;2023-01-19T05:05:21;1.20;99.90
20722;DHT22;10522;52.198;9.890;2023-01-19T05:07:46;1.20;99.90
20722;DHT22;10522;52.198;9.890;2023-01-19T05:10:13;1.20;99.90
20722;DHT22;10522;52.198;9.890;2023-01-19T05:12:39;1.10;99.90
20722;DHT22;10522;52.198;9.890;2023-01-19T05:15:05;1.20;99.90
20722;DHT22;10522;52.198;9.890;2023-01-19T05:17:32;1.20;99.90
20722;DHT22;10522;52.198;9.890;2023-01-19T05:19:57;1.20;99.90
20722;DHT22;10522;52.198;9.890;2023-01-19T05:22:23;1.20;99.90
20722;DHT22;10522;52.198;9.890;2023-01-19T05:24:48;1.30;99.90
20722;DHT22;10522;52.198;9.890;2023-01-19T05:27:14;1.20;99.90
20722;DHT22;10522;52.198;9.890;2023-01-19T05:29:40;1.30;99.90
20722;DHT22;10522;52.198;9.890;2023-01-19T05:32:05;1.40;99.90
20722;DHT22;10522;52.198;9.890;2023-01-19T05:34:31;1.50;99.90
20722;DHT22;10522;52.198;9.890;2023-01-19T05:36:56;1.50;99.90
20722;DHT22;10522;52.198;9.890;2023-01-19T05:39:22;1.50;99.90
20722;DHT22;10522;52.198;9.890;2023-01-19T05:41:48;1.50;99.90
20722;DHT22;10522;52.198;9.890;2023-01-19T05:44:13;1.50;99.90
20722;DHT22;10522;52.198;9.890;2023-01-19T05:46:39;1.50;99.90
20722;DHT22;10522;52.198;9.890;2023-01-19T05:49:05;1.50;99.90
20722;DHT22;10522;52.198;9.890;2023-01-19T05:51:32;1.50;99.90
20722;DHT22;10522;52.198;9.890;2023-01-19T05:54:03;1.60;99.90
20722;DHT22;10522;52.198;9.890;2023-01-19T05:56:29;1.60;99.90
20722;DHT22;10522;52.198;9.890;2023-01-19T05:58:55;1.50;99.90
20722;DHT22;10522;52.198;9.890;2023-01-19T06:01:20;1.60;99.90
20722;DHT22;10522;52.198;9.890;2023-01-19T06:03:46;1.60;99.90
20722;DHT22;10522;52.198;9.890;2023-01-19T06:06:13;1.60;99.90
20722;DHT22;10522;52.198;9.890;2023-01-19T06:08:39;1.60;99.90
20722;DHT22;10522;52.198;9.890;2023-01-19T06:11:05;1.60;99.90
20722;DHT22;10522;52.198;9.890;2023-01-19T06:13:32;1.60;99.90
20722;DHT22;10522;52.198;9.890;2023-01-19T06:15:58;1.60;99.90
20722;DHT22;10522;52.198;9.890;2023-01-19T06:18:25;1.60;99.90
20722;DHT22;10522;52.198;9.890;2023-01-19T06:20:51;1.60;99.90
20722;DHT22;10522;52.198;9.890;2023-01-19T06:23:25;1.60;99.90
20722;DHT22;10522;52.198;9.890;2023-01-19T06:25:51;1.60;99.90
20722;DHT22;10522;52.198;9.890;2023-01-19T06:28:17;1.70;99.90
20722;DHT22;10522;52.198;9.890;2023-01-19T06:30:48;1.70;99.90
20722;DHT22;10522;52.198;9.890;2023-01-19T06:33:15;1.70;99.90
20722;DHT22;10522;52.198;9.890;2023-01-19T06:35:45;1.60;99.90
20722;DHT22;10522;52.198;9.890;2023-01-19T06:38:13;1.60;99.90
20722;DHT22;10522;52.198;9.890;2023-01-19T06:40:39;1.70;99.90
20722;DHT22;10522;52.198;9.890;2023-01-19T06:43:06;1.70;99.90
20722;DHT22;10522;52.198;9.890;2023-01-19T06:45:32;1.70;99.90
20722;DHT22;10522;52.198;9.890;2023-01-19T06:47:58;1.60;99.90
20722;DHT22;10522;52.198;9.890;2023-01-19T06:50:23;1.60;99.90
20722;DHT22;10522;52.198;9.890;2023-01-19T06:52:52;1.60;99.90
20722;DHT22;10522;52.198;9.890;2023-01-19T06:55:18;1.50;99.90
20722;DHT22;10522;52.198;9.890;2023-01-19T06:57:44;1.60;99.90
20722;DHT22;10522;52.198;9.890;2023-01-19T07:00:12;1.60;99.90
20722;DHT22;10522;52.198;9.890;2023-01-19T07:02:41;1.70;99.90
20722;DHT22;10522;52.198;9.890;2023-01-19T07:05:08;1.60;99.90
20722;DHT22;10522;52.198;9.890;2023-01-19T07:07:35;1.70;99.90
20722;DHT22;10522;52.198;9.890;2023-01-19T07:10:01;1.60;99.90
20722;DHT22;10522;52.198;9.890;2023-01-19T07:12:26;1.60;99.90
20722;DHT22;10522;52.198;9.890;2023-01-19T07:14:52;1.80;99.90
20722;DHT22;10522;52.198;9.890;2023-01-19T07:17:18;1.60;99.90
20722;DHT22;10522;52.198;9.890;2023-01-19T07:19:45;1.60;99.90
20722;DHT22;10522;52.198;9.890;2023-01-19T07:22:10;1.70;99.90
20722;DHT22;10522;52.198;9.890;2023-01-19T07:24:36;1.60;99.90
20722;DHT22;10522;52.198;9.890;2023-01-19T07:27:02;1.60;99.90
20722;DHT22;10522;52.198;9.890;2023-01-19T07:29:29;1.60;99.90
20722;DHT22;10522;52.198;9.890;2023-01-19T07:31:55;1.70;99.90
20722;DHT22;10522;52.198;9.890;2023-01-19T07:34:21;1.60;99.90
20722;DHT22;10522;52.198;9.890;2023-01-19T07:36:47;1.60;99.90
20722;DHT22;10522;52.198;9.890;2023-01-19T07:39:13;1.60;99.90
20722;DHT22;10522;52.198;9.890;2023-01-19T07:41:39;1.60;99.90
20722;DHT22;10522;52.198;9.890;2023-01-19T07:44:04;1.60;99.90
20722;DHT22;10522;52.198;9.890;2023-01-19T07:46:30;1.50;99.90
20722;DHT22;10522;52.198;9.890;2023-01-19T07:48:57;1.50;99.90
20722;DHT22;10522;52.198;9.890;2023-01-19T07:51:23;1.50;99.90
20722;DHT22;10522;52.198;9.890;2023-01-19T07:53:49;1.50;99.90
20722;DHT22;10522;52.198;9.890;2023-01-19T07:56:15;1.50;99.90
20722;DHT22;10522;52.198;9.890;2023-01-19T07:58:41;1.40;99.90
20722;DHT22;10522;52.198;9.890;2023-01-19T08:01:08;1.50;99.90
20722;DHT22;10522;52.198;9.890;2023-01-19T08:03:35;1.50;99.90
20722;DHT22;10522;52.198;9.890;2023-01-19T08:06:00;1.50;99.90
20722;DHT22;10522;52.198;9.890;2023-01-19T08:08:28;1.60;99.90
20722;DHT22;10522;52.198;9.890;2023-01-19T08:10:54;1.60;99.90
20722;DHT22;10522;52.198;9.890;2023-01-19T08:13:20;1.70;99.90
20722;DHT22;10522;52.198;9.890;2023-01-19T08:15:50;1.50;99.90
20722;DHT22;10522;52.198;9.890;2023-01-19T08:18:16;1.50;99.90
20722;DHT22;10522;52.198;9.890;2023-01-19T08:20:42;1.40;99.90
20722;DHT22;10522;52.198;9.890;2023-01-19T08:23:08;1.40;99.90
20722;DHT22;10522;52.198;9.890;2023-01-19T08:25:36;1.50;99.90
20722;DHT22;10522;52.198;9.890;2023-01-19T08:28:03;1.70;99.90
20722;DHT22;10522;52.198;9.890;2023-01-19T08:30:29;1.60;99.90
20722;DHT22;10522;52.198;9.890;2023-01-19T08:32:55;1.70;99.90
20722;DHT22;10522;52.198;9.890;2023-01-19T08:35:40;1.80;99.90
20722;DHT22;10522;52.198;9.890;2023-01-19T08:38:08;1.80;99.90
20722;DHT22;10522;52.198;9.890;2023-01-19T08:40:37;1.90;99.90
20722;DHT22;10522;52.198;9.890;2023-01-19T08:43:10;1.80;99.90
20722;DHT22;10522;52.198;9.890;2023-01-19T08:45:38;1.80;99.90
20722;DHT22;10522;52.198;9.890;2023-01-19T08:48:11;1.90;99.90
20722;DHT22;10522;52.198;9.890;2023-01-19T08:50:38;1.90;99.90
20722;DHT22;10522;52.198;9.890;2023-01-19T08:53:04;2.00;99.90
20722;DHT22;10522;52.198;9.890;2023-01-19T08:55:34;1.90;99.90
20722;DHT22;10522;52.198;9.890;2023-01-19T08:58:01;1.90;99.90
20722;DHT22;10522;52.198;9.890;2023-01-19T09:00:28;1.90;99.90
20722;DHT22;10522;52.198;9.890;2023-01-19T09:02:56;1.90;99.90
20722;DHT22;10522;52.198;9.890;2023-01-19T09:05:21;2.10;99.90
20722;DHT22;10522;52.198;9.890;2023-01-19T09:07:47;2.10;99.90
20722;DHT22;10522;52.198;9.890;2023-01-19T09:10:14;2.10;99.90
20722;DHT22;10522;52.198;9.890;2023-01-19T09:12:40;2.00;99.90
20722;DHT22;10522;52.198;9.890;2023-01-19T09:15:06;2.00;99.90
20722;DHT22;10522;52.198;9.890;2023-01-19T09:17:32;2.00;99.90
20722;DHT22;10522;52.198;9.890;2023-01-19T09:19:58;2.00;99.90
20722;DHT22;10522;52.198;9.890;2023-01-19T09:22:24;2.00;99.90
20722;DHT22;10522;52.198;9.890;2023-01-19T09:24:49;2.00;99.90
20722;DHT22;10522;52.198;9.890;2023-01-19T09:27:15;2.00;99.90
20722;DHT22;10522;52.198;9.890;2023-01-19T09:29:41;2.00;99.90
20722;DHT22;10522;52.198;9.890;2023-01-19T09:32:06;2.00;99.90
20722;DHT22;10522;52.198;9.890;2023-01-19T09:34:33;2.00;99.90
20722;DHT22;10522;52.198;9.890;2023-01-19T09:36:59;1.90;99.90
20722;DHT22;10522;52.198;9.890;2023-01-19T09:39:24;1.90;99.90
20722;DHT22;10522;52.198;9.890;2023-01-19T09:42:01;1.90;99.90
20722;DHT22;10522;52.198;9.890;2023-01-19T09:44:33;2.00;99.90
20722;DHT22;10522;52.198;9.890;2023-01-19T09:47:02;2.00;99.90
20722;DHT22;10522;52.198;9.890;2023-01-19T09:49:39;2.00;99.90
20722;DHT22;10522;52.198;9.890;2023-01-19T09:52:09;2.10;99.90
20722;DHT22;10522;52.198;9.890;2023-01-19T09:54:51;2.00;99.90
20722;DHT22;10522;52.198;9.890;2023-01-19T09:57:17;2.10;99.90
20722;DHT22;10522;52.198;9.890;2023-01-19T09:59:43;2.10;99.90
20722;DHT22;10522;52.198;9.890;2023-01-19T10:02:39;2.20;99.90
20722;DHT22;10522;52.198;9.890;2023-01-19T10:10:25;2.20;99.90
20722;DHT22;10522;52.198;9.890;2023-01-19T10:21:07;2.10;99.90
20722;DHT22;10522;52.198;9.890;2023-01-19T10:26:28;2.20;99.90
20722;DHT22;10522;52.198;9.890;2023-01-19T10:29:04;2.20;99.90
20722;DHT22;10522;52.198;9.890;2023-01-19T10:31:32;2.30;99.90
20722;DHT22;10522;52.198;9.890;2023-01-19T10:33:58;2.40;99.90
20722;DHT22;10522;52.198;9.890;2023-01-19T10:36:42;2.30;99.90
20722;DHT22;10522;52.198;9.890;2023-01-19T10:39:10;2.20;99.90
20722;DHT22;10522;52.198;9.890;2023-01-19T10:41:40;2.30;99.90
20722;DHT22;10522;52.198;9.890;2023-01-19T10:44:07;2.30;99.90
20722;DHT22;10522;52.198;9.890;2023-01-19T10:46:45;2.30;99.90
20722;DHT22;10522;52.198;9.890;2023-01-19T10:49:37;2.30;99.90
20722;DHT22;10522;52.198;9.890;2023-01-19T10:52:05;2.20;99.90
20722;DHT22;10522;52.198;9.890;2023-01-19T10:54:32;2.10;99.90
20722;DHT22;10522;52.198;9.890;2023-01-19T10:57:02;2.10;99.90
20722;DHT22;10522;52.198;9.890;2023-01-19T11:04:40;2.10;99.90
20722;DHT22;10522;52.198;9.890;2023-01-19T11:07:17;2.00;99.90
20722;DHT22;10522;52.198;9.890;2023-01-19T11:09:43;2.00;99.90
20722;DHT22;10522;52.198;9.890;2023-01-19T11:12:21;2.00;99.90
20722;DHT22;10522;52.198;9.890;2023-01-19T11:14:48;2.00;99.90
20722;DHT22;10522;52.198;9.890;2023-01-19T11:17:24;2.00;99.90
20722;DHT22;10522;52.198;9.890;2023-01-19T11:20:01;2.10;99.90
20722;DHT22;10522;52.198;9.890;2023-01-19T11:22:31;2.10;99.90
20722;DHT22;10522;52.198;9.890;2023-01-19T11:25:02;2.10;99.90
20722;DHT22;10522;52.198;9.890;2023-01-19T11:27:30;2.10;99.90
20722;DHT22;10522;52.198;9.890;2023-01-19T11:32:32;2.10;99.90
20722;DHT22;10522;52.198;9.890;2023-01-19T11:35:26;2.10;99.90
20722;DHT22;10522;52.198;9.890;2023-01-19T11:37:47;2.10;99.90
20722;DHT22;10522;52.198;9.890;2023-01-19T11:40:15;2.20;99.90
20722;DHT22;10522;52.198;9.890;2023-01-19T11:42:41;2.20;99.90
20722;DHT22;10522;52.198;9.890;2023-01-19T11:45:14;2.30;99.90
20722;DHT22;10522;52.198;9.890;2023-01-19T11:47:43;2.30;99.90
20722;DHT22;10522;52.198;9.890;2023-01-19T11:57:55;2.20;99.90
20722;DHT22;10522;52.198;9.890;2023-01-19T12:00:27;2.20;99.90
20722;DHT22;10522;52.198;9.890;2023-01-19T12:03:18;2.20;99.90
20722;DHT22;10522;52.198;9.890;2023-01-19T12:05:50;2.20;99.90
20722;DHT22;10522;52.198;9.890;2023-01-19T12:08:21;2.10;99.90
20722;DHT22;10522;52.198;9.890;2023-01-19T12:10:48;2.10;99.90
20722;DHT22;10522;52.198;9.890;2023-01-19T12:13:24;2.10;99.90
20722;DHT22;10522;52.198;9.890;2023-01-19T12:15:59;2.10;99.90
20722;DHT22;10522;52.198;9.890;2023-01-19T12:18:38;2.00;99.90
20722;DHT22;10522;52.198;9.890;2023-01-19T12:21:05;1.90;99.90
20722;DHT22;10522;52.198;9.890;2023-01-19T12:23:49;1.90;99.90
20722;DHT22;10522;52.198;9.890;2023-01-19T12:29:19;2.10;99.90
20722;DHT22;10522;52.198;9.890;2023-01-19T12:34:39;2.00;99.90
20722;DHT22;10522;52.198;9.890;2023-01-19T12:37:27;1.90;99.90
20722;DHT22;10522;52.198;9.890;2023-01-19T12:40:22;1.70;99.90
20722;DHT22;10522;52.198;9.890;2023-01-19T12:42:56;1.50;99.90
20722;DHT22;10522;52.198;9.890;2023-01-19T12:45:23;1.30;99.90
20722;DHT22;10522;52.198;9.890;2023-01-19T12:47:54;1.20;99.90
20722;DHT22;10522;52.198;9.890;2023-01-19T12:50:22;1.20;99.90
20722;DHT22;10522;52.198;9.890;2023-01-19T12:52:55;1.10;99.90
20722;DHT22;10522;52.198;9.890;2023-01-19T12:55:31;1.20;99.90
20722;DHT22;10522;52.198;9.890;2023-01-19T13:00:39;1.10;99.90
20722;DHT22;10522;52.198;9.890;2023-01-19T13:05:47;1.10;99.90
20722;DHT22;10522;52.198;9.890;2023-01-19T13:08:15;1.10;99.90
20722;DHT22;10522;52.198;9.890;2023-01-19T13:13:41;1.10;99.90
20722;DHT22;10522;52.198;9.890;2023-01-19T13:17:01;1.10;99.90
20722;DHT22;10522;52.198;9.890;2023-01-19T13:19:41;1.10;99.90
20722;DHT22;10522;52.198;9.890;2023-01-19T13:25:31;1.10;99.90
20722;DHT22;10522;52.198;9.890;2023-01-19T13:28:00;1.10;99.90
20722;DHT22;10522;52.198;9.890;2023-01-19T13:30:27;1.10;99.90
20722;DHT22;10522;52.198;9.890;2023-01-19T13:32:57;1.20;99.90
20722;DHT22;10522;52.198;9.890;2023-01-19T13:35:25;1.20;99.90
20722;DHT22;10522;52.198;9.890;2023-01-19T13:37:51;1.20;99.90
20722;DHT22;10522;52.198;9.890;2023-01-19T13:40:21;1.30;99.90
20722;DHT22;10522;52.198;9.890;2023-01-19T13:42:48;1.30;99.90
20722;DHT22;10522;52.198;9.890;2023-01-19T13:45:33;1.30;99.90
20722;DHT22;10522;52.198;9.890;2023-01-19T13:48:04;1.50;99.90
20722;DHT22;10522;52.198;9.890;2023-01-19T13:50:33;1.40;99.90
20722;DHT22;10522;52.198;9.890;2023-01-19T13:52:59;1.40;99.90
20722;DHT22;10522;52.198;9.890;2023-01-19T13:55:27;1.50;99.90
20722;DHT22;10522;52.198;9.890;2023-01-19T13:57:53;1.50;99.90
20722;DHT22;10522;52.198;9.890;2023-01-19T14:05:42;1.60;99.90
20722;DHT22;10522;52.198;9.890;2023-01-19T14:10:40;1.60;99.90
20722;DHT22;10522;52.198;9.890;2023-01-19T14:13:27;1.70;99.90
20722;DHT22;10522;52.198;9.890;2023-01-19T14:16:04;1.70;99.90
20722;DHT22;10522;52.198;9.890;2023-01-19T14:18:32;1.80;99.90
20722;DHT22;10522;52.198;9.890;2023-01-19T14:23:45;1.90;99.90
20722;DHT22;10522;52.198;9.890;2023-01-19T14:29:27;2.00;99.90
20722;DHT22;10522;52.198;9.890;2023-01-19T14:34:31;2.00;99.90
20722;DHT22;10522;52.198;9.890;2023-01-19T14:36:58;1.90;99.90
20722;DHT22;10522;52.198;9.890;2023-01-19T14:39:27;1.90;99.90
20722;DHT22;10522;52.198;9.890;2023-01-19T14:41:55;1.90;99.90
20722;DHT22;10522;52.198;9.890;2023-01-19T14:44:38;1.80;99.90
20722;DHT22;10522;52.198;9.890;2023-01-19T14:47:06;1.80;99.90
20722;DHT22;10522;52.198;9.890;2023-01-19T14:49:46;1.80;99.90
20722;DHT22;10522;52.198;9.890;2023-01-19T14:52:30;1.80;99.90
20722;DHT22;10522;52.198;9.890;2023-01-19T14:54:58;1.80;99.90
20722;DHT22;10522;52.198;9.890;2023-01-19T14:57:24;1.70;99.90
20722;DHT22;10522;52.198;9.890;2023-01-19T14:59:50;1.70;99.90
20722;DHT22;10522;52.198;9.890;2023-01-19T15:02:16;1.70;99.90
20722;DHT22;10522;52.198;9.890;2023-01-19T15:04:45;1.70;99.90
20722;DHT22;10522;52.198;9.890;2023-01-19T15:07:18;1.70;99.90
20722;DHT22;10522;52.198;9.890;2023-01-19T15:09:45;1.70;99.90
20722;DHT22;10522;52.198;9.890;2023-01-19T15:12:13;1.70;99.90
20722;DHT22;10522;52.198;9.890;2023-01-19T15:14:39;1.70;99.90
20722;DHT22;10522;52.198;9.890;2023-01-19T15:17:07;1.60;99.90
20722;DHT22;10522;52.198;9.890;2023-01-19T15:19:34;1.60;99.90
20722;DHT22;10522;52.198;9.890;2023-01-19T15:21:59;1.60;99.90
20722;DHT22;10522;52.198;9.890;2023-01-19T15:24:25;1.60;99.90
20722;DHT22;10522;52.198;9.890;2023-01-19T15:26:50;1.60;99.90
20722;DHT22;10522;52.198;9.890;2023-01-19T15:29:22;1.50;99.90
20722;DHT22;10522;52.198;9.890;2023-01-19T15:31:49;1.60;99.90
20722;DHT22;10522;52.198;9.890;2023-01-19T15:34:14;1.60;99.90
20722;DHT22;10522;52.198;9.890;2023-01-19T15:36:40;1.50;99.90
20722;DHT22;10522;52.198;9.890;2023-01-19T15:39:07;1.50;99.90
20722;DHT22;10522;52.198;9.890;2023-01-19T15:41:33;1.40;99.90
20722;DHT22;10522;52.198;9.890;2023-01-19T15:43:58;1.50;99.90
20722;DHT22;10522;52.198;9.890;2023-01-19T15:46:25;1.50;99.90
20722;DHT22;10522;52.198;9.890;2023-01-19T15:49:05;1.50;99.90
20722;DHT22;10522;52.198;9.890;2023-01-19T15:51:31;1.40;99.90
20722;DHT22;10522;52.198;9.890;2023-01-19T15:53:57;1.40;99.90
20722;DHT22;10522;52.198;9.890;2023-01-19T15:56:28;1.40;99.90
20722;DHT22;10522;52.198;9.890;2023-01-19T15:58:55;1.40;99.90
20722;DHT22;10522;52.198;9.890;2023-01-19T16:01:24;1.40;99.90
20722;DHT22;10522;52.198;9.890;2023-01-19T16:03:57;1.40;99.90
20722;DHT22;10522;52.198;9.890;2023-01-19T16:06:24;1.30;99.90
20722;DHT22;10522;52.198;9.890;2023-01-19T16:08:49;1.30;99.90
20722;DHT22;10522;52.198;9.890;2023-01-19T16:11:15;1.30;99.90
20722;DHT22;10522;52.198;9.890;2023-01-19T16:13:46;1.30;99.90
20722;DHT22;10522;52.198;9.890;2023-01-19T16:16:16;1.40;99.90
20722;DHT22;10522;52.198;9.890;2023-01-19T16:18:41;1.30;99.90
20722;DHT22;10522;52.198;9.890;2023-01-19T16:21:07;1.40;99.90
20722;DHT22;10522;52.198;9.890;2023-01-19T16:23:32;1.30;99.90
20722;DHT22;10522;52.198;9.890;2023-01-19T16:26:00;1.20;99.90
20722;DHT22;10522;52.198;9.890;2023-01-19T16:28:30;1.30;99.90
20722;DHT22;10522;52.198;9.890;2023-01-19T16:30:56;1.30;99.90
20722;DHT22;10522;52.198;9.890;2023-01-19T16:33:21;1.20;99.90
20722;DHT22;10522;52.198;9.890;2023-01-19T16:35:47;1.20;99.90
20722;DHT22;10522;52.198;9.890;2023-01-19T16:38:13;1.20;99.90
20722;DHT22;10522;52.198;9.890;2023-01-19T16:40:39;1.20;99.90
20722;DHT22;10522;52.198;9.890;2023-01-19T16:43:05;1.40;99.90
20722;DHT22;10522;52.198;9.890;2023-01-19T16:45:30;1.30;99.90
20722;DHT22;10522;52.198;9.890;2023-01-19T16:47:56;1.30;99.90
20722;DHT22;10522;52.198;9.890;2023-01-19T16:50:22;1.30;99.90
20722;DHT22;10522;52.198;9.890;2023-01-19T16:52:47;1.30;99.90
20722;DHT22;10522;52.198;9.890;2023-01-19T16:55:15;1.20;99.90
20722;DHT22;10522;52.198;9.890;2023-01-19T16:57:40;1.20;99.90
20722;DHT22;10522;52.198;9.890;2023-01-19T17:00:08;1.30;99.90
20722;DHT22;10522;52.198;9.890;2023-01-19T17:02:34;1.20;99.90
20722;DHT22;10522;52.198;9.890;2023-01-19T17:05:00;1.20;99.90
20722;DHT22;10522;52.198;9.890;2023-01-19T17:07:26;1.20;99.90
20722;DHT22;10522;52.198;9.890;2023-01-19T17:09:52;1.10;99.90
20722;DHT22;10522;52.198;9.890;2023-01-19T17:12:18;1.10;99.90
20722;DHT22;10522;52.198;9.890;2023-01-19T17:14:43;1.10;99.90
20722;DHT22;10522;52.198;9.890;2023-01-19T17:17:12;1.20;99.90
20722;DHT22;10522;52.198;9.890;2023-01-19T17:19:38;1.20;99.90